sensor_id;sensor_type;location;lat;lon;timestamp;P1;durP1;ratioP1;P2;durP2;ratioP2
79229;SDS011;68663;49.122;17.544;2024-02-15T00:00:01;5.57;;;4.93;;
79229;SDS011;68663;49.122;17.544;2024-02-15T00:02:30;5.80;;;5.20;;
79229;SDS011;68663;49.122;17.544;2024-02-15T00:04:55;5.10;;;4.57;;
79229;SDS011;68663;49.122;17.544;2024-02-15T00:07:21;6.53;;;5.18;;
79229;SDS011;68663;49.122;17.544;2024-02-15T00:09:48;6.03;;;4.65;;
79229;SDS011;68663;49.122;17.544;2024-02-15T00:12:13;5.22;;;4.72;;
79229;SDS011;68663;49.122;17.544;2024-02-15T00:14:39;4.88;;;4.40;;
79229;SDS011;68663;49.122;17.544;2024-02-15T00:17:04;5.25;;;4.43;;
79229;SDS011;68663;49.122;17.544;2024-02-15T00:19:30;5.30;;;4.60;;
79229;SDS011;68663;49.122;17.544;2024-02-15T00:21:56;5.32;;;4.70;;
79229;SDS011;68663;49.122;17.544;2024-02-15T00:24:21;6.07;;;5.13;;
79229;SDS011;68663;49.122;17.544;2024-02-15T00:26:47;4.85;;;4.35;;
79229;SDS011;68663;49.122;17.544;2024-02-15T00:29:13;5.57;;;4.95;;
79229;SDS011;68663;49.122;17.544;2024-02-15T00:31:39;5.70;;;4.72;;
79229;SDS011;68663;49.122;17.544;2024-02-15T00:34:05;5.53;;;4.93;;
79229;SDS011;68663;49.122;17.544;2024-02-15T00:36:31;5.75;;;5.05;;
79229;SDS011;68663;49.122;17.544;2024-02-15T00:38:59;5.28;;;4.65;;
79229;SDS011;68663;49.122;17.544;2024-02-15T00:41:25;4.80;;;4.20;;
79229;SDS011;68663;49.122;17.544;2024-02-15T00:43:51;4.90;;;4.40;;
79229;SDS011;68663;49.122;17.544;2024-02-15T00:46:17;5.50;;;4.33;;
79229;SDS011;68663;49.122;17.544;2024-02-15T00:48:42;5.40;;;4.90;;
79229;SDS011;68663;49.122;17.544;2024-02-15T00:51:07;5.43;;;4.60;;
79229;SDS011;68663;49.122;17.544;2024-02-15T00:53:33;4.90;;;4.40;;
79229;SDS011;68663;49.122;17.544;2024-02-15T00:55:59;5.38;;;4.88;;
79229;SDS011;68663;49.122;17.544;2024-02-15T00:58:24;4.72;;;4.13;;
79229;SDS011;68663;49.122;17.544;2024-02-15T01:00:52;6.53;;;5.00;;
79229;SDS011;68663;49.122;17.544;2024-02-15T01:03:18;4.75;;;4.20;;
79229;SDS011;68663;49.122;17.544;2024-02-15T01:05:44;5.15;;;4.65;;
79229;SDS011;68663;49.122;17.544;2024-02-15T01:08:10;5.47;;;4.70;;
79229;SDS011;68663;49.122;17.544;2024-02-15T01:10:36;5.07;;;4.53;;
79229;SDS011;68663;49.122;17.544;2024-02-15T01:13:01;5.10;;;4.55;;
79229;SDS011;68663;49.122;17.544;2024-02-15T01:15:27;5.20;;;4.70;;
79229;SDS011;68663;49.122;17.544;2024-02-15T01:17:52;5.77;;;4.53;;
79229;SDS011;68663;49.122;17.544;2024-02-15T01:20:18;5.10;;;4.30;;
79229;SDS011;68663;49.122;17.544;2024-02-15T01:22:43;4.82;;;4.32;;
79229;SDS011;68663;49.122;17.544;2024-02-15T01:25:09;4.80;;;4.05;;
79229;SDS011;68663;49.122;17.544;2024-02-15T01:27:35;4.72;;;4.00;;
79229;SDS011;68663;49.122;17.544;2024-02-15T01:30:01;5.57;;;4.45;;
79229;SDS011;68663;49.122;17.544;2024-02-15T01:32:26;4.40;;;3.65;;
79229;SDS011;68663;49.122;17.544;2024-02-15T01:34:52;4.73;;;4.23;;
79229;SDS011;68663;49.122;17.544;2024-02-15T01:37:20;4.10;;;3.70;;
79229;SDS011;68663;49.122;17.544;2024-02-15T01:39:46;4.55;;;4.07;;
79229;SDS011;68663;49.122;17.544;2024-02-15T01:42:11;4.75;;;4.28;;
79229;SDS011;68663;49.122;17.544;2024-02-15T01:44:39;4.78;;;4.10;;
79229;SDS011;68663;49.122;17.544;2024-02-15T01:47:05;6.38;;;4.30;;
79229;SDS011;68663;49.122;17.544;2024-02-15T01:49:31;4.65;;;3.95;;
79229;SDS011;68663;49.122;17.544;2024-02-15T01:51:57;4.88;;;4.32;;
79229;SDS011;68663;49.122;17.544;2024-02-15T01:54:25;4.60;;;4.10;;
79229;SDS011;68663;49.122;17.544;2024-02-15T01:56:50;5.57;;;3.80;;
79229;SDS011;68663;49.122;17.544;2024-02-15T01:59:17;5.00;;;3.92;;
79229;SDS011;68663;49.122;17.544;2024-02-15T02:01:43;4.80;;;3.97;;
79229;SDS011;68663;49.122;17.544;2024-02-15T02:04:09;4.65;;;4.10;;
79229;SDS011;68663;49.122;17.544;2024-02-15T02:06:36;4.18;;;3.70;;
79229;SDS011;68663;49.122;17.544;2024-02-15T02:09:02;4.60;;;4.13;;
79229;SDS011;68663;49.122;17.544;2024-02-15T02:11:28;4.13;;;3.72;;
79229;SDS011;68663;49.122;17.544;2024-02-15T02:13:55;4.10;;;3.70;;
79229;SDS011;68663;49.122;17.544;2024-02-15T02:16:27;3.90;;;3.50;;
79229;SDS011;68663;49.122;17.544;2024-02-15T02:19:00;4.63;;;4.20;;
79229;SDS011;68663;49.122;17.544;2024-02-15T02:21:26;4.20;;;3.75;;
79229;SDS011;68663;49.122;17.544;2024-02-15T02:23:52;4.45;;;3.72;;
79229;SDS011;68663;49.122;17.544;2024-02-15T02:26:21;4.32;;;3.83;;
79229;SDS011;68663;49.122;17.544;2024-02-15T02:28:47;4.15;;;3.72;;
79229;SDS011;68663;49.122;17.544;2024-02-15T02:31:13;4.32;;;3.88;;
79229;SDS011;68663;49.122;17.544;2024-02-15T02:33:39;4.15;;;3.55;;
79229;SDS011;68663;49.122;17.544;2024-02-15T02:36:06;3.75;;;3.35;;
79229;SDS011;68663;49.122;17.544;2024-02-15T02:38:37;5.00;;;4.07;;
79229;SDS011;68663;49.122;17.544;2024-02-15T02:41:06;4.07;;;3.60;;
79229;SDS011;68663;49.122;17.544;2024-02-15T02:43:31;4.10;;;3.70;;
79229;SDS011;68663;49.122;17.544;2024-02-15T02:45:57;5.17;;;4.17;;
79229;SDS011;68663;49.122;17.544;2024-02-15T02:48:22;3.60;;;3.30;;
79229;SDS011;68663;49.122;17.544;2024-02-15T02:50:48;4.77;;;3.90;;
79229;SDS011;68663;49.122;17.544;2024-02-15T02:53:14;4.20;;;3.80;;
79229;SDS011;68663;49.122;17.544;2024-02-15T02:55:40;3.95;;;3.55;;
79229;SDS011;68663;49.122;17.544;2024-02-15T02:58:06;5.15;;;3.65;;
79229;SDS011;68663;49.122;17.544;2024-02-15T03:00:33;3.55;;;3.22;;
79229;SDS011;68663;49.122;17.544;2024-02-15T03:02:58;3.58;;;3.22;;
79229;SDS011;68663;49.122;17.544;2024-02-15T03:05:25;4.30;;;3.60;;
79229;SDS011;68663;49.122;17.544;2024-02-15T03:07:50;3.83;;;3.42;;
79229;SDS011;68663;49.122;17.544;2024-02-15T03:10:17;4.53;;;3.90;;
79229;SDS011;68663;49.122;17.544;2024-02-15T03:12:43;4.22;;;3.70;;
79229;SDS011;68663;49.122;17.544;2024-02-15T03:15:15;4.20;;;3.65;;
79229;SDS011;68663;49.122;17.544;2024-02-15T03:17:41;3.78;;;3.38;;
79229;SDS011;68663;49.122;17.544;2024-02-15T03:20:08;3.80;;;3.05;;
79229;SDS011;68663;49.122;17.544;2024-02-15T03:23:06;3.92;;;3.30;;
79229;SDS011;68663;49.122;17.544;2024-02-15T03:25:31;3.63;;;3.30;;
79229;SDS011;68663;49.122;17.544;2024-02-15T03:27:57;3.88;;;3.47;;
79229;SDS011;68663;49.122;17.544;2024-02-15T03:30:26;4.35;;;3.50;;
79229;SDS011;68663;49.122;17.544;2024-02-15T03:32:54;4.05;;;3.42;;
79229;SDS011;68663;49.122;17.544;2024-02-15T03:35:21;4.25;;;3.47;;
79229;SDS011;68663;49.122;17.544;2024-02-15T03:37:47;4.22;;;3.28;;
79229;SDS011;68663;49.122;17.544;2024-02-15T03:40:16;5.13;;;3.78;;
79229;SDS011;68663;49.122;17.544;2024-02-15T03:42:43;4.13;;;3.72;;
79229;SDS011;68663;49.122;17.544;2024-02-15T03:45:08;4.07;;;3.53;;
79229;SDS011;68663;49.122;17.544;2024-02-15T03:47:34;3.63;;;3.20;;
79229;SDS011;68663;49.122;17.544;2024-02-15T03:50:05;3.90;;;3.20;;
79229;SDS011;68663;49.122;17.544;2024-02-15T03:52:33;4.22;;;3.40;;
79229;SDS011;68663;49.122;17.544;2024-02-15T03:54:58;4.20;;;3.60;;
79229;SDS011;68663;49.122;17.544;2024-02-15T03:57:24;3.78;;;3.35;;
79229;SDS011;68663;49.122;17.544;2024-02-15T03:59:50;4.20;;;3.50;;
79229;SDS011;68663;49.122;17.544;2024-02-15T04:02:17;4.75;;;3.55;;
79229;SDS011;68663;49.122;17.544;2024-02-15T04:04:48;3.47;;;2.92;;
79229;SDS011;68663;49.122;17.544;2024-02-15T04:07:14;4.00;;;3.30;;
79229;SDS011;68663;49.122;17.544;2024-02-15T04:09:41;4.30;;;3.15;;
79229;SDS011;68663;49.122;17.544;2024-02-15T04:12:07;3.45;;;3.15;;
79229;SDS011;68663;49.122;17.544;2024-02-15T04:14:32;3.73;;;3.27;;
79229;SDS011;68663;49.122;17.544;2024-02-15T04:17:03;3.55;;;3.25;;
79229;SDS011;68663;49.122;17.544;2024-02-15T04:19:29;3.83;;;3.10;;
79229;SDS011;68663;49.122;17.544;2024-02-15T04:21:56;3.72;;;3.28;;
79229;SDS011;68663;49.122;17.544;2024-02-15T04:24:21;3.53;;;3.22;;
79229;SDS011;68663;49.122;17.544;2024-02-15T04:26:48;3.90;;;3.38;;
79229;SDS011;68663;49.122;17.544;2024-02-15T04:29:13;4.60;;;3.17;;
79229;SDS011;68663;49.122;17.544;2024-02-15T04:31:45;3.97;;;3.33;;
79229;SDS011;68663;49.122;17.544;2024-02-15T04:34:13;3.85;;;3.45;;
79229;SDS011;68663;49.122;17.544;2024-02-15T04:36:38;4.17;;;3.43;;
79229;SDS011;68663;49.122;17.544;2024-02-15T04:39:03;3.73;;;3.17;;
79229;SDS011;68663;49.122;17.544;2024-02-15T04:41:29;4.85;;;3.00;;
79229;SDS011;68663;49.122;17.544;2024-02-15T04:43:55;3.35;;;2.95;;
79229;SDS011;68663;49.122;17.544;2024-02-15T04:46:20;3.60;;;3.07;;
79229;SDS011;68663;49.122;17.544;2024-02-15T04:48:46;4.82;;;3.28;;
79229;SDS011;68663;49.122;17.544;2024-02-15T04:51:14;5.13;;;3.40;;
79229;SDS011;68663;49.122;17.544;2024-02-15T04:53:39;5.07;;;3.42;;
79229;SDS011;68663;49.122;17.544;2024-02-15T04:56:06;6.00;;;3.50;;
79229;SDS011;68663;49.122;17.544;2024-02-15T04:58:41;5.00;;;3.42;;
79229;SDS011;68663;49.122;17.544;2024-02-15T05:01:13;6.85;;;3.63;;
79229;SDS011;68663;49.122;17.544;2024-02-15T05:03:39;40.00;;;10.35;;
79229;SDS011;68663;49.122;17.544;2024-02-15T05:06:05;43.28;;;11.45;;
79229;SDS011;68663;49.122;17.544;2024-02-15T05:08:33;52.47;;;13.95;;
79229;SDS011;68663;49.122;17.544;2024-02-15T05:11:01;37.83;;;12.05;;
79229;SDS011;68663;49.122;17.544;2024-02-15T05:13:29;40.13;;;12.50;;
79229;SDS011;68663;49.122;17.544;2024-02-15T05:15:55;46.40;;;14.20;;
79229;SDS011;68663;49.122;17.544;2024-02-15T05:18:20;34.38;;;11.95;;
79229;SDS011;68663;49.122;17.544;2024-02-15T05:20:46;48.08;;;13.57;;
79229;SDS011;68663;49.122;17.544;2024-02-15T05:23:11;46.75;;;12.35;;
79229;SDS011;68663;49.122;17.544;2024-02-15T05:25:37;40.22;;;13.00;;
79229;SDS011;68663;49.122;17.544;2024-02-15T05:28:03;44.20;;;15.00;;
79229;SDS011;68663;49.122;17.544;2024-02-15T05:30:30;51.10;;;14.20;;
79229;SDS011;68663;49.122;17.544;2024-02-15T05:32:57;52.88;;;16.98;;
79229;SDS011;68663;49.122;17.544;2024-02-15T05:35:23;58.55;;;16.65;;
79229;SDS011;68663;49.122;17.544;2024-02-15T05:37:49;59.33;;;18.15;;
79229;SDS011;68663;49.122;17.544;2024-02-15T05:40:17;44.58;;;14.73;;
79229;SDS011;68663;49.122;17.544;2024-02-15T05:42:44;51.67;;;14.13;;
79229;SDS011;68663;49.122;17.544;2024-02-15T05:47:54;38.10;;;13.38;;
79229;SDS011;68663;49.122;17.544;2024-02-15T05:50:19;38.22;;;13.20;;
79229;SDS011;68663;49.122;17.544;2024-02-15T05:52:46;45.38;;;12.98;;
79229;SDS011;68663;49.122;17.544;2024-02-15T05:55:12;37.92;;;12.82;;
79229;SDS011;68663;49.122;17.544;2024-02-15T05:57:41;38.03;;;12.32;;
79229;SDS011;68663;49.122;17.544;2024-02-15T06:00:08;35.50;;;12.15;;
79229;SDS011;68663;49.122;17.544;2024-02-15T06:02:33;35.88;;;12.38;;
79229;SDS011;68663;49.122;17.544;2024-02-15T06:04:59;29.97;;;11.27;;
79229;SDS011;68663;49.122;17.544;2024-02-15T06:07:30;33.35;;;11.82;;
79229;SDS011;68663;49.122;17.544;2024-02-15T06:09:57;29.10;;;11.40;;
79229;SDS011;68663;49.122;17.544;2024-02-15T06:12:27;28.48;;;10.25;;
79229;SDS011;68663;49.122;17.544;2024-02-15T06:14:53;32.63;;;12.07;;
79229;SDS011;68663;49.122;17.544;2024-02-15T06:17:18;27.30;;;10.68;;
79229;SDS011;68663;49.122;17.544;2024-02-15T06:19:44;30.27;;;10.57;;
79229;SDS011;68663;49.122;17.544;2024-02-15T06:22:09;22.88;;;9.85;;
79229;SDS011;68663;49.122;17.544;2024-02-15T06:24:37;29.42;;;11.65;;
79229;SDS011;68663;49.122;17.544;2024-02-15T06:27:02;27.30;;;10.77;;
79229;SDS011;68663;49.122;17.544;2024-02-15T06:29:28;25.05;;;9.45;;
79229;SDS011;68663;49.122;17.544;2024-02-15T06:32:12;32.05;;;11.45;;
79229;SDS011;68663;49.122;17.544;2024-02-15T06:34:56;27.30;;;10.07;;
79229;SDS011;68663;49.122;17.544;2024-02-15T06:37:40;23.20;;;9.40;;
79229;SDS011;68663;49.122;17.544;2024-02-15T06:40:24;30.67;;;10.07;;
79229;SDS011;68663;49.122;17.544;2024-02-15T06:42:50;22.90;;;9.13;;
79229;SDS011;68663;49.122;17.544;2024-02-15T06:45:16;19.40;;;8.75;;
79229;SDS011;68663;49.122;17.544;2024-02-15T06:47:43;23.70;;;9.07;;
79229;SDS011;68663;49.122;17.544;2024-02-15T06:50:15;21.77;;;9.63;;
79229;SDS011;68663;49.122;17.544;2024-02-15T06:52:42;21.98;;;9.48;;
79229;SDS011;68663;49.122;17.544;2024-02-15T06:55:07;23.70;;;9.80;;
79229;SDS011;68663;49.122;17.544;2024-02-15T06:57:34;24.45;;;9.60;;
79229;SDS011;68663;49.122;17.544;2024-02-15T07:00:03;18.38;;;9.10;;
79229;SDS011;68663;49.122;17.544;2024-02-15T07:02:32;24.05;;;8.77;;
79229;SDS011;68663;49.122;17.544;2024-02-15T07:04:58;23.98;;;8.90;;
79229;SDS011;68663;49.122;17.544;2024-02-15T07:07:23;23.92;;;9.70;;
79229;SDS011;68663;49.122;17.544;2024-02-15T07:09:50;18.88;;;9.00;;
79229;SDS011;68663;49.122;17.544;2024-02-15T07:12:16;17.58;;;9.57;;
79229;SDS011;68663;49.122;17.544;2024-02-15T07:14:41;14.10;;;8.20;;
79229;SDS011;68663;49.122;17.544;2024-02-15T07:17:06;17.43;;;9.47;;
79229;SDS011;68663;49.122;17.544;2024-02-15T07:19:32;9.68;;;7.80;;
79229;SDS011;68663;49.122;17.544;2024-02-15T07:22:01;12.00;;;8.13;;
79229;SDS011;68663;49.122;17.544;2024-02-15T07:24:27;9.88;;;7.05;;
79229;SDS011;68663;49.122;17.544;2024-02-15T07:26:53;10.07;;;7.45;;
79229;SDS011;68663;49.122;17.544;2024-02-15T07:29:20;12.02;;;7.38;;
79229;SDS011;68663;49.122;17.544;2024-02-15T07:31:48;10.60;;;6.32;;
79229;SDS011;68663;49.122;17.544;2024-02-15T07:34:14;9.57;;;6.13;;
79229;SDS011;68663;49.122;17.544;2024-02-15T07:36:39;11.57;;;7.47;;
79229;SDS011;68663;49.122;17.544;2024-02-15T07:39:07;10.02;;;6.25;;
79229;SDS011;68663;49.122;17.544;2024-02-15T07:41:37;9.27;;;7.38;;
79229;SDS011;68663;49.122;17.544;2024-02-15T07:44:03;12.82;;;6.80;;
79229;SDS011;68663;49.122;17.544;2024-02-15T07:46:29;9.25;;;6.28;;
79229;SDS011;68663;49.122;17.544;2024-02-15T07:48:54;9.40;;;6.35;;
79229;SDS011;68663;49.122;17.544;2024-02-15T07:51:21;7.10;;;5.67;;
79229;SDS011;68663;49.122;17.544;2024-02-15T07:53:47;9.30;;;6.28;;
79229;SDS011;68663;49.122;17.544;2024-02-15T07:56:13;9.20;;;6.68;;
79229;SDS011;68663;49.122;17.544;2024-02-15T07:58:41;9.23;;;6.10;;
79229;SDS011;68663;49.122;17.544;2024-02-15T08:01:06;9.73;;;5.90;;
79229;SDS011;68663;49.122;17.544;2024-02-15T08:03:33;11.57;;;6.68;;
79229;SDS011;68663;49.122;17.544;2024-02-15T08:06:00;13.57;;;6.55;;
79229;SDS011;68663;49.122;17.544;2024-02-15T08:08:25;12.05;;;7.13;;
79229;SDS011;68663;49.122;17.544;2024-02-15T08:10:51;17.27;;;6.63;;
79229;SDS011;68663;49.122;17.544;2024-02-15T08:13:16;16.15;;;7.35;;
79229;SDS011;68663;49.122;17.544;2024-02-15T08:15:42;17.25;;;7.32;;
79229;SDS011;68663;49.122;17.544;2024-02-15T08:18:09;11.93;;;6.80;;
79229;SDS011;68663;49.122;17.544;2024-02-15T08:20:37;16.17;;;7.28;;
79229;SDS011;68663;49.122;17.544;2024-02-15T08:23:05;12.48;;;6.90;;
79229;SDS011;68663;49.122;17.544;2024-02-15T08:25:31;11.57;;;5.72;;
79229;SDS011;68663;49.122;17.544;2024-02-15T08:27:56;13.77;;;6.07;;
79229;SDS011;68663;49.122;17.544;2024-02-15T08:30:21;11.57;;;6.47;;
79229;SDS011;68663;49.122;17.544;2024-02-15T08:32:47;9.95;;;5.78;;
79229;SDS011;68663;49.122;17.544;2024-02-15T08:35:13;9.93;;;5.93;;
79229;SDS011;68663;49.122;17.544;2024-02-15T08:37:39;13.07;;;6.97;;
79229;SDS011;68663;49.122;17.544;2024-02-15T08:40:05;11.50;;;6.03;;
79229;SDS011;68663;49.122;17.544;2024-02-15T08:42:37;10.85;;;6.13;;
79229;SDS011;68663;49.122;17.544;2024-02-15T08:45:04;9.73;;;5.40;;
79229;SDS011;68663;49.122;17.544;2024-02-15T08:47:30;11.15;;;6.03;;
79229;SDS011;68663;49.122;17.544;2024-02-15T08:49:55;12.43;;;6.22;;
79229;SDS011;68663;49.122;17.544;2024-02-15T08:52:21;11.20;;;5.97;;
79229;SDS011;68663;49.122;17.544;2024-02-15T08:54:46;9.70;;;5.27;;
79229;SDS011;68663;49.122;17.544;2024-02-15T08:57:11;12.20;;;5.93;;
79229;SDS011;68663;49.122;17.544;2024-02-15T08:59:38;9.45;;;5.60;;
79229;SDS011;68663;49.122;17.544;2024-02-15T09:02:04;12.68;;;6.03;;
79229;SDS011;68663;49.122;17.544;2024-02-15T09:04:30;8.82;;;5.25;;
79229;SDS011;68663;49.122;17.544;2024-02-15T09:06:56;16.42;;;5.63;;
79229;SDS011;68663;49.122;17.544;2024-02-15T09:09:21;8.77;;;5.35;;
79229;SDS011;68663;49.122;17.544;2024-02-15T09:11:47;7.85;;;4.93;;
79229;SDS011;68663;49.122;17.544;2024-02-15T09:14:12;8.60;;;5.30;;
79229;SDS011;68663;49.122;17.544;2024-02-15T09:16:38;8.65;;;5.00;;
79229;SDS011;68663;49.122;17.544;2024-02-15T09:19:04;9.18;;;5.63;;
79229;SDS011;68663;49.122;17.544;2024-02-15T09:21:31;9.18;;;5.47;;
79229;SDS011;68663;49.122;17.544;2024-02-15T09:23:58;8.73;;;5.25;;
79229;SDS011;68663;49.122;17.544;2024-02-15T09:26:24;9.43;;;5.07;;
79229;SDS011;68663;49.122;17.544;2024-02-15T09:28:49;6.75;;;4.30;;
79229;SDS011;68663;49.122;17.544;2024-02-15T09:31:15;7.97;;;5.25;;
79229;SDS011;68663;49.122;17.544;2024-02-15T09:33:40;9.13;;;5.05;;
79229;SDS011;68663;49.122;17.544;2024-02-15T09:36:06;8.00;;;4.70;;
79229;SDS011;68663;49.122;17.544;2024-02-15T09:38:31;8.52;;;4.28;;
79229;SDS011;68663;49.122;17.544;2024-02-15T09:40:57;10.75;;;4.68;;
79229;SDS011;68663;49.122;17.544;2024-02-15T09:43:22;19.52;;;4.57;;
79229;SDS011;68663;49.122;17.544;2024-02-15T09:48:17;17.73;;;5.28;;
79229;SDS011;68663;49.122;17.544;2024-02-15T09:50:43;11.77;;;4.75;;
79229;SDS011;68663;49.122;17.544;2024-02-15T09:53:11;12.43;;;4.68;;
79229;SDS011;68663;49.122;17.544;2024-02-15T09:55:39;13.50;;;4.82;;
79229;SDS011;68663;49.122;17.544;2024-02-15T09:58:06;9.13;;;4.90;;
79229;SDS011;68663;49.122;17.544;2024-02-15T10:00:34;14.00;;;4.90;;
79229;SDS011;68663;49.122;17.544;2024-02-15T10:03:00;9.35;;;4.93;;
79229;SDS011;68663;49.122;17.544;2024-02-15T10:05:27;9.57;;;4.85;;
79229;SDS011;68663;49.122;17.544;2024-02-15T10:07:53;17.30;;;5.53;;
79229;SDS011;68663;49.122;17.544;2024-02-15T10:12:54;8.23;;;4.38;;
79229;SDS011;68663;49.122;17.544;2024-02-15T10:15:29;7.25;;;3.85;;
79229;SDS011;68663;49.122;17.544;2024-02-15T10:17:59;9.45;;;4.55;;
79229;SDS011;68663;49.122;17.544;2024-02-15T10:20:26;7.35;;;4.50;;
79229;SDS011;68663;49.122;17.544;2024-02-15T10:22:53;7.63;;;4.22;;
79229;SDS011;68663;49.122;17.544;2024-02-15T10:25:34;7.53;;;4.20;;
79229;SDS011;68663;49.122;17.544;2024-02-15T10:28:03;9.98;;;4.28;;
79229;SDS011;68663;49.122;17.544;2024-02-15T10:30:33;10.57;;;4.28;;
79229;SDS011;68663;49.122;17.544;2024-02-15T10:33:00;8.23;;;4.15;;
79229;SDS011;68663;49.122;17.544;2024-02-15T10:35:26;8.13;;;4.47;;
79229;SDS011;68663;49.122;17.544;2024-02-15T10:37:52;7.90;;;4.47;;
79229;SDS011;68663;49.122;17.544;2024-02-15T10:40:30;8.23;;;4.28;;
79229;SDS011;68663;49.122;17.544;2024-02-15T10:42:55;7.03;;;4.40;;
79229;SDS011;68663;49.122;17.544;2024-02-15T10:45:23;6.70;;;4.00;;
79229;SDS011;68663;49.122;17.544;2024-02-15T10:47:50;4.88;;;3.85;;
79229;SDS011;68663;49.122;17.544;2024-02-15T10:50:15;7.82;;;3.80;;
79229;SDS011;68663;49.122;17.544;2024-02-15T10:52:53;5.60;;;4.22;;
79229;SDS011;68663;49.122;17.544;2024-02-15T10:55:56;8.75;;;3.88;;
79229;SDS011;68663;49.122;17.544;2024-02-15T10:58:19;6.45;;;4.18;;
79229;SDS011;68663;49.122;17.544;2024-02-15T11:00:45;6.45;;;3.72;;
79229;SDS011;68663;49.122;17.544;2024-02-15T11:03:19;7.43;;;3.72;;
79229;SDS011;68663;49.122;17.544;2024-02-15T11:05:51;5.95;;;3.85;;
79229;SDS011;68663;49.122;17.544;2024-02-15T11:08:17;8.80;;;4.05;;
79229;SDS011;68663;49.122;17.544;2024-02-15T11:10:43;6.20;;;4.40;;
79229;SDS011;68663;49.122;17.544;2024-02-15T11:13:09;5.32;;;3.33;;
79229;SDS011;68663;49.122;17.544;2024-02-15T11:18:00;6.13;;;4.07;;
79229;SDS011;68663;49.122;17.544;2024-02-15T11:22:58;5.93;;;4.20;;
79229;SDS011;68663;49.122;17.544;2024-02-15T11:25:33;5.82;;;3.60;;
79229;SDS011;68663;49.122;17.544;2024-02-15T11:28:43;4.65;;;3.38;;
79229;SDS011;68663;49.122;17.544;2024-02-15T11:30:49;3.58;;;3.25;;
79229;SDS011;68663;49.122;17.544;2024-02-15T11:36:05;4.80;;;3.33;;
79229;SDS011;68663;49.122;17.544;2024-02-15T11:38:33;5.55;;;3.95;;
79229;SDS011;68663;49.122;17.544;2024-02-15T11:41:00;6.20;;;3.83;;
79229;SDS011;68663;49.122;17.544;2024-02-15T11:46:08;4.88;;;2.70;;
79229;SDS011;68663;49.122;17.544;2024-02-15T11:48:38;4.75;;;3.80;;
79229;SDS011;68663;49.122;17.544;2024-02-15T11:51:04;5.20;;;3.65;;
79229;SDS011;68663;49.122;17.544;2024-02-15T11:53:31;6.35;;;3.45;;
79229;SDS011;68663;49.122;17.544;2024-02-15T11:56:00;5.55;;;3.90;;
79229;SDS011;68663;49.122;17.544;2024-02-15T11:58:27;4.45;;;3.47;;
79229;SDS011;68663;49.122;17.544;2024-02-15T12:01:11;5.05;;;3.78;;
79229;SDS011;68663;49.122;17.544;2024-02-15T12:03:55;5.05;;;3.35;;
79229;SDS011;68663;49.122;17.544;2024-02-15T12:06:38;6.78;;;4.28;;
79229;SDS011;68663;49.122;17.544;2024-02-15T12:09:23;22.40;;;6.85;;
79229;SDS011;68663;49.122;17.544;2024-02-15T12:12:09;29.38;;;10.13;;
79229;SDS011;68663;49.122;17.544;2024-02-15T12:15:00;34.72;;;9.55;;
79229;SDS011;68663;49.122;17.544;2024-02-15T12:17:44;25.25;;;8.40;;
79229;SDS011;68663;49.122;17.544;2024-02-15T12:20:28;35.88;;;9.00;;
79229;SDS011;68663;49.122;17.544;2024-02-15T12:22:54;28.77;;;8.70;;
79229;SDS011;68663;49.122;17.544;2024-02-15T12:25:20;25.00;;;8.82;;
79229;SDS011;68663;49.122;17.544;2024-02-15T12:27:55;32.58;;;9.02;;
79229;SDS011;68663;49.122;17.544;2024-02-15T12:30:24;24.75;;;8.60;;
79229;SDS011;68663;49.122;17.544;2024-02-15T12:32:52;21.65;;;7.57;;
79229;SDS011;68663;49.122;17.544;2024-02-15T12:35:21;22.92;;;7.32;;
79229;SDS011;68663;49.122;17.544;2024-02-15T12:38:01;15.93;;;7.03;;
79229;SDS011;68663;49.122;17.544;2024-02-15T12:40:33;18.13;;;7.55;;
79229;SDS011;68663;49.122;17.544;2024-02-15T12:42:59;14.77;;;6.70;;
79229;SDS011;68663;49.122;17.544;2024-02-15T12:45:26;18.23;;;7.07;;
79229;SDS011;68663;49.122;17.544;2024-02-15T12:47:53;20.33;;;6.95;;
79229;SDS011;68663;49.122;17.544;2024-02-15T12:50:23;16.85;;;6.95;;
79229;SDS011;68663;49.122;17.544;2024-02-15T12:52:52;16.85;;;7.00;;
79229;SDS011;68663;49.122;17.544;2024-02-15T12:55:20;12.50;;;6.80;;
79229;SDS011;68663;49.122;17.544;2024-02-15T12:57:51;15.80;;;7.43;;
79229;SDS011;68663;49.122;17.544;2024-02-15T13:00:27;14.07;;;6.15;;
79229;SDS011;68663;49.122;17.544;2024-02-15T13:03:01;16.83;;;6.25;;
79229;SDS011;68663;49.122;17.544;2024-02-15T13:05:29;18.30;;;6.82;;
79229;SDS011;68663;49.122;17.544;2024-02-15T13:07:56;16.55;;;7.85;;
79229;SDS011;68663;49.122;17.544;2024-02-15T13:10:27;15.82;;;6.97;;
79229;SDS011;68663;49.122;17.544;2024-02-15T13:12:56;13.07;;;6.28;;
79229;SDS011;68663;49.122;17.544;2024-02-15T13:15:22;20.90;;;6.75;;
79229;SDS011;68663;49.122;17.544;2024-02-15T13:17:52;22.17;;;7.85;;
79229;SDS011;68663;49.122;17.544;2024-02-15T13:20:20;23.05;;;6.68;;
79229;SDS011;68663;49.122;17.544;2024-02-15T13:22:57;19.17;;;5.63;;
79229;SDS011;68663;49.122;17.544;2024-02-15T13:25:45;15.35;;;6.25;;
79229;SDS011;68663;49.122;17.544;2024-02-15T13:28:11;22.00;;;5.73;;
79229;SDS011;68663;49.122;17.544;2024-02-15T13:30:37;17.80;;;6.07;;
79229;SDS011;68663;49.122;17.544;2024-02-15T13:33:03;15.13;;;5.95;;
79229;SDS011;68663;49.122;17.544;2024-02-15T13:35:29;17.92;;;6.25;;
79229;SDS011;68663;49.122;17.544;2024-02-15T13:37:55;17.15;;;6.97;;
79229;SDS011;68663;49.122;17.544;2024-02-15T13:40:23;10.15;;;5.18;;
79229;SDS011;68663;49.122;17.544;2024-02-15T13:42:50;16.15;;;6.15;;
79229;SDS011;68663;49.122;17.544;2024-02-15T13:45:30;10.88;;;4.95;;
79229;SDS011;68663;49.122;17.544;2024-02-15T13:47:58;16.63;;;5.63;;
79229;SDS011;68663;49.122;17.544;2024-02-15T13:50:28;15.95;;;6.57;;
79229;SDS011;68663;49.122;17.544;2024-02-15T13:52:54;12.75;;;6.47;;
79229;SDS011;68663;49.122;17.544;2024-02-15T13:55:20;15.73;;;6.05;;
79229;SDS011;68663;49.122;17.544;2024-02-15T13:57:48;12.63;;;5.47;;
79229;SDS011;68663;49.122;17.544;2024-02-15T14:00:15;14.25;;;5.35;;
79229;SDS011;68663;49.122;17.544;2024-02-15T14:02:48;15.25;;;5.43;;
79229;SDS011;68663;49.122;17.544;2024-02-15T14:05:21;12.80;;;5.05;;
79229;SDS011;68663;49.122;17.544;2024-02-15T14:07:51;9.90;;;5.10;;
79229;SDS011;68663;49.122;17.544;2024-02-15T14:10:20;12.32;;;5.65;;
79229;SDS011;68663;49.122;17.544;2024-02-15T14:12:46;14.65;;;6.20;;
79229;SDS011;68663;49.122;17.544;2024-02-15T14:15:13;18.27;;;8.73;;
79229;SDS011;68663;49.122;17.544;2024-02-15T14:17:40;11.13;;;7.78;;
79229;SDS011;68663;49.122;17.544;2024-02-15T14:20:06;12.25;;;8.35;;
79229;SDS011;68663;49.122;17.544;2024-02-15T14:22:34;9.20;;;6.68;;
79229;SDS011;68663;49.122;17.544;2024-02-15T14:25:00;8.75;;;6.43;;
79229;SDS011;68663;49.122;17.544;2024-02-15T14:27:25;12.70;;;6.45;;
79229;SDS011;68663;49.122;17.544;2024-02-15T14:29:53;6.85;;;5.35;;
79229;SDS011;68663;49.122;17.544;2024-02-15T14:32:37;8.32;;;5.00;;
79229;SDS011;68663;49.122;17.544;2024-02-15T14:35:21;6.85;;;4.70;;
79229;SDS011;68663;49.122;17.544;2024-02-15T14:37:46;10.25;;;5.45;;
79229;SDS011;68663;49.122;17.544;2024-02-15T14:40:12;9.03;;;4.60;;
79229;SDS011;68663;49.122;17.544;2024-02-15T14:42:41;7.13;;;4.53;;
79229;SDS011;68663;49.122;17.544;2024-02-15T14:45:08;9.55;;;5.00;;
79229;SDS011;68663;49.122;17.544;2024-02-15T14:47:34;6.50;;;4.45;;
79229;SDS011;68663;49.122;17.544;2024-02-15T14:49:59;5.50;;;4.77;;